createdAt,value
2023-10-03T00:00:12.777Z,70.50
2023-10-03T00:03:21.544Z,70.49
2023-10-03T00:06:27.178Z,70.45
2023-10-03T00:09:33.888Z,70.32
2023-10-03T00:12:39.205Z,70.60
2023-10-03T00:15:45.994Z,70.74
2023-10-03T00:18:51.393Z,70.59
2023-10-03T00:21:57.182Z,70.83
2023-10-03T00:25:03.116Z,71.13
2023-10-03T00:28:13.614Z,70.82
2023-10-03T00:31:19.201Z,70.42
2023-10-03T00:34:25.277Z,70.05
2023-10-03T00:37:31.109Z,70.48
2023-10-03T00:40:40.048Z,70.58
2023-10-03T00:43:45.656Z,70.19
2023-10-03T00:46:52.541Z,70.87
2023-10-03T00:49:58.168Z,70.67
2023-10-03T00:53:05.448Z,71.17
2023-10-03T00:56:12.570Z,71.66
2023-10-03T00:59:18.530Z,72.10
2023-10-03T01:02:27.016Z,72.84
2023-10-03T01:05:32.936Z,73.35
2023-10-03T01:08:38.951Z,74.07
2023-10-03T01:11:46.872Z,74.57
2023-10-03T01:14:36.364Z,74.15
2023-10-03T01:17:42.571Z,74.30
2023-10-03T01:20:48.042Z,74.12
2023-10-03T01:23:57.041Z,73.83
2023-10-03T01:27:02.896Z,73.22
2023-10-03T01:30:08.451Z,72.74
2023-10-03T01:33:17.209Z,73.34
2023-10-03T01:36:23.280Z,73.62
2023-10-03T01:39:29.185Z,73.86
2023-10-03T01:42:35.141Z,74.24
2023-10-03T01:45:44.013Z,74.75
2023-10-03T01:48:49.560Z,74.54
2023-10-03T01:51:55.345Z,74.93
2023-10-03T01:55:04.310Z,75.28
2023-10-03T01:57:55.027Z,74.96
2023-10-03T02:01:01.135Z,73.70
2023-10-03T02:04:06.481Z,73.08
2023-10-03T02:07:12.164Z,72.33
2023-10-03T02:10:17.798Z,72.80
2023-10-03T02:13:24.480Z,72.45
2023-10-03T02:16:12.167Z,73.03
2023-10-03T02:18:58.289Z,73.32
2023-10-03T02:21:44.129Z,73.06
2023-10-03T02:24:31.822Z,73.39
2023-10-03T02:27:18.570Z,73.29
2023-10-03T02:30:13.397Z,73.76
2023-10-03T02:33:09.687Z,73.55
2023-10-03T02:35:56.002Z,73.99
2023-10-03T02:39:02.302Z,74.11
2023-10-03T02:42:09.975Z,74.35
2023-10-03T02:45:17.688Z,74.44
2023-10-03T02:48:36.559Z,74.95
2023-10-03T02:51:43.054Z,76.04
2023-10-03T02:54:50.277Z,75.85
2023-10-03T02:57:58.051Z,76.17
2023-10-03T03:01:22.226Z,75.67
2023-10-03T03:04:27.845Z,75.78
2023-10-03T03:07:35.302Z,75.36
2023-10-03T03:10:41.025Z,74.83
2023-10-03T03:13:49.566Z,74.57
2023-10-03T03:16:54.792Z,75.29
2023-10-03T03:20:02.431Z,75.88
2023-10-03T03:23:09.522Z,75.75
2023-10-03T03:26:15.513Z,75.84
2023-10-03T03:29:21.209Z,76.01
2023-10-03T03:32:27.202Z,76.37
2023-10-03T03:35:35.775Z,76.73
2023-10-03T03:38:41.420Z,76.94
2023-10-03T03:41:46.733Z,76.62
2023-10-03T03:44:52.721Z,76.46
2023-10-03T03:47:40.846Z,76.65
2023-10-03T03:50:46.920Z,76.84
2023-10-03T03:53:53.652Z,76.76
2023-10-03T03:56:59.390Z,77.06
2023-10-03T04:00:05.933Z,76.95
2023-10-03T04:03:21.355Z,77.21
2023-10-03T04:06:26.791Z,77.00
2023-10-03T04:09:32.544Z,77.24
2023-10-03T04:12:39.165Z,77.41
2023-10-03T04:15:45.241Z,77.83
2023-10-03T04:18:52.082Z,78.31
2023-10-03T04:21:59.509Z,78.53
2023-10-03T04:25:05.075Z,78.66
2023-10-03T04:28:15.412Z,79.07
2023-10-03T04:31:20.941Z,79.50
2023-10-03T04:34:27.041Z,80.14
2023-10-03T04:37:32.784Z,79.73
2023-10-03T04:40:42.881Z,80.23
2023-10-03T04:43:49.442Z,80.84
2023-10-03T04:46:58.481Z,81.04
2023-10-03T04:50:04.091Z,80.92
2023-10-03T04:53:11.137Z,79.94
2023-10-03T04:56:16.977Z,80.15
2023-10-03T04:59:23.044Z,80.27
2023-10-03T05:02:32.019Z,80.39
2023-10-03T05:05:42.671Z,80.37
2023-10-03T05:08:48.357Z,79.89
2023-10-03T05:11:54.296Z,79.93
2023-10-03T05:15:03.569Z,80.04
2023-10-03T05:18:10.437Z,80.68
2023-10-03T05:21:17.739Z,80.15
2023-10-03T05:24:05.117Z,81.00
2023-10-03T05:27:12.106Z,80.93
2023-10-03T05:30:18.438Z,81.07
2023-10-03T05:33:28.827Z,81.17
2023-10-03T05:36:39.030Z,81.96
2023-10-03T05:39:27.839Z,81.43
2023-10-03T05:42:34.187Z,81.60
2023-10-03T05:45:21.158Z,82.06
2023-10-03T05:48:07.733Z,82.44
2023-10-03T05:50:56.880Z,82.68
2023-10-03T05:53:45.815Z,82.39
2023-10-03T05:56:32.090Z,82.50
2023-10-03T05:59:17.546Z,82.56
2023-10-03T06:02:26.907Z,82.48
2023-10-03T06:05:33.162Z,82.08
2023-10-03T06:08:38.809Z,82.51
2023-10-03T06:11:46.314Z,82.51
2023-10-03T06:14:51.783Z,82.84
2023-10-03T06:17:59.092Z,82.98
2023-10-03T06:21:05.259Z,82.40
2023-10-03T06:23:52.281Z,82.85
2023-10-03T06:26:58.323Z,82.64
2023-10-03T06:30:06.988Z,83.14
2023-10-03T06:33:13.264Z,83.80
2023-10-03T06:36:19.186Z,83.89
2023-10-03T06:39:25.120Z,83.96
2023-10-03T06:42:10.618Z,84.26
2023-10-03T06:44:56.341Z,84.14
2023-10-03T06:48:05.400Z,84.29
2023-10-03T06:51:12.153Z,84.57
2023-10-03T06:54:17.719Z,84.65
2023-10-03T06:57:24.125Z,84.23
2023-10-03T07:00:32.041Z,84.10
2023-10-03T07:03:37.725Z,83.71
2023-10-03T07:06:44.280Z,83.73
2023-10-03T07:09:52.862Z,83.33
2023-10-03T07:12:58.632Z,82.98
2023-10-03T07:16:05.250Z,82.44
2023-10-03T07:19:12.031Z,82.08
2023-10-03T07:22:18.327Z,81.53
2023-10-03T07:25:25.619Z,81.78
2023-10-03T07:28:33.304Z,81.61
2023-10-03T07:31:39.066Z,81.16
2023-10-03T07:34:45.096Z,81.13
2023-10-03T07:37:51.037Z,80.82
2023-10-03T07:40:57.126Z,81.14
2023-10-03T07:44:02.939Z,81.42
2023-10-03T07:47:08.538Z,81.95
2023-10-03T07:50:14.014Z,81.34
2023-10-03T07:53:21.384Z,80.71
2023-10-03T07:56:35.930Z,80.08
2023-10-03T07:59:41.311Z,80.07
2023-10-03T08:02:49.880Z,79.77
2023-10-03T08:05:59.378Z,79.60
2023-10-03T08:09:05.354Z,79.54
2023-10-03T08:11:53.404Z,79.13
2023-10-03T08:15:00.582Z,78.45
2023-10-03T08:18:09.149Z,78.57
2023-10-03T08:21:17.812Z,78.21
2023-10-03T08:24:23.999Z,77.98
2023-10-03T08:27:35.641Z,77.75
2023-10-03T08:30:47.601Z,77.67
2023-10-03T08:33:55.957Z,77.72
2023-10-03T08:37:02.116Z,77.32
2023-10-03T08:40:08.845Z,77.31
2023-10-03T08:43:16.099Z,76.90
2023-10-03T08:46:23.088Z,76.04
2023-10-03T08:49:31.348Z,75.46
2023-10-03T08:52:37.078Z,75.59
2023-10-03T08:55:43.134Z,75.29
2023-10-03T08:58:49.230Z,73.65
2023-10-03T09:01:58.596Z,74.03
2023-10-03T09:05:04.494Z,73.31
2023-10-03T09:08:16.660Z,71.51
2023-10-03T09:11:21.818Z,71.08
2023-10-03T09:14:29.738Z,71.08
2023-10-03T09:17:42.480Z,70.65
2023-10-03T09:20:50.563Z,69.61
2023-10-03T09:24:23.047Z,69.75
2023-10-03T09:27:41.162Z,69.12
2023-10-03T09:30:47.617Z,68.13
2023-10-03T09:33:57.669Z,68.72
2023-10-03T09:37:05.895Z,69.28
2023-10-03T09:40:11.889Z,68.19
2023-10-03T09:43:21.013Z,66.83
2023-10-03T09:46:26.995Z,67.13
2023-10-03T09:49:33.221Z,66.47
2023-10-03T09:52:39.292Z,64.91
2023-10-03T09:55:49.242Z,64.04
2023-10-03T09:58:57.156Z,63.91
2023-10-03T10:02:03.429Z,63.47
2023-10-03T10:05:11.253Z,64.31
2023-10-03T10:08:19.931Z,63.70
2023-10-03T10:11:28.908Z,62.95
2023-10-03T10:14:36.393Z,62.83
2023-10-03T10:17:43.600Z,62.58
2023-10-03T10:20:54.849Z,61.71
2023-10-03T10:24:42.254Z,62.21
2023-10-03T10:27:50.523Z,62.58
2023-10-03T10:30:58.619Z,62.59
2023-10-03T10:34:05.384Z,61.80
2023-10-03T10:37:23.807Z,60.25
2023-10-03T10:40:13.681Z,60.28
2023-10-03T10:43:28.135Z,60.14
2023-10-03T10:46:53.227Z,60.07
2023-10-03T10:50:14.040Z,61.29
2023-10-03T10:53:27.860Z,60.67
2023-10-03T10:56:16.406Z,60.52
2023-10-03T10:59:29.445Z,60.62
2023-10-03T11:02:48.691Z,59.29
2023-10-03T11:06:06.056Z,59.78
2023-10-03T11:09:11.870Z,59.98
2023-10-03T11:12:19.230Z,59.96
2023-10-03T11:15:32.277Z,60.08
2023-10-03T11:18:49.650Z,59.77
2023-10-03T11:21:36.705Z,58.77
2023-10-03T11:24:44.775Z,57.78
2023-10-03T11:27:52.211Z,58.16
2023-10-03T11:30:59.320Z,58.08
2023-10-03T11:34:07.339Z,58.12
2023-10-03T11:37:12.615Z,58.86
2023-10-03T11:40:30.541Z,58.39
2023-10-03T11:43:43.068Z,57.71
2023-10-03T11:47:01.087Z,57.50
2023-10-03T11:50:08.059Z,57.63
2023-10-03T11:53:15.731Z,57.79
2023-10-03T11:56:24.569Z,58.19
2023-10-03T11:59:31.025Z,58.20
2023-10-03T12:02:36.528Z,58.41
2023-10-03T12:05:44.093Z,58.98
2023-10-03T12:08:49.996Z,58.76
2023-10-03T12:11:57.451Z,59.13
2023-10-03T12:15:06.449Z,58.15
2023-10-03T12:18:16.396Z,58.05
2023-10-03T12:21:23.387Z,57.94
2023-10-03T12:24:29.147Z,58.50
2023-10-03T12:27:34.839Z,57.98
2023-10-03T12:30:40.678Z,58.03
2023-10-03T12:33:45.908Z,58.48
2023-10-03T12:36:51.766Z,58.04
2023-10-03T12:39:57.471Z,58.14
2023-10-03T12:43:10.638Z,58.47
2023-10-03T12:46:19.617Z,58.12
2023-10-03T12:49:25.976Z,57.98
2023-10-03T12:52:32.114Z,57.58
2023-10-03T12:55:38.284Z,57.04
2023-10-03T12:58:43.684Z,56.13
2023-10-03T13:01:49.277Z,54.95
2023-10-03T13:04:55.014Z,54.82
2023-10-03T13:08:01.112Z,54.99
2023-10-03T13:11:07.421Z,55.07
2023-10-03T13:14:13.464Z,55.58
2023-10-03T13:17:20.172Z,53.71
2023-10-03T13:20:27.571Z,53.73
2023-10-03T13:23:33.368Z,53.83
2023-10-03T13:26:38.876Z,53.88
2023-10-03T13:29:44.518Z,53.85
2023-10-03T13:32:50.306Z,53.25
2023-10-03T13:35:55.678Z,53.36
2023-10-03T13:39:01.471Z,53.52
2023-10-03T13:42:07.525Z,53.81
2023-10-03T13:44:58.256Z,54.30
2023-10-03T13:48:05.110Z,53.93
2023-10-03T13:51:10.807Z,54.24
2023-10-03T13:54:18.221Z,54.03
2023-10-03T13:57:24.421Z,54.04
2023-10-03T14:00:33.841Z,53.57
2023-10-03T14:03:40.806Z,53.48
2023-10-03T14:06:47.270Z,54.13
2023-10-03T14:09:53.113Z,54.14
2023-10-03T14:12:58.682Z,54.72
2023-10-03T14:16:04.242Z,54.19
2023-10-03T14:19:10.493Z,54.18
2023-10-03T14:22:16.098Z,54.16
2023-10-03T14:25:22.530Z,54.22
2023-10-03T14:28:28.105Z,53.95
2023-10-03T14:31:34.012Z,54.18
2023-10-03T14:34:39.807Z,54.28
2023-10-03T14:37:45.275Z,54.48
2023-10-03T14:40:50.808Z,54.51
2023-10-03T14:43:56.464Z,54.31
2023-10-03T14:47:02.005Z,55.00
2023-10-03T14:50:08.121Z,55.07
2023-10-03T14:53:14.224Z,55.62
2023-10-03T14:56:25.545Z,55.83
2023-10-03T14:59:29.040Z,55.81
2023-10-03T15:02:34.947Z,56.02
2023-10-03T15:05:41.398Z,56.41
2023-10-03T15:08:49.970Z,56.89
2023-10-03T15:11:55.624Z,57.19
2023-10-03T15:15:03.915Z,57.41
2023-10-03T15:18:10.166Z,58.40
2023-10-03T15:21:19.184Z,58.18
2023-10-03T15:24:25.440Z,58.16
2023-10-03T15:27:32.575Z,57.97
2023-10-03T15:30:39.125Z,58.33
2023-10-03T15:33:46.402Z,58.06
2023-10-03T15:36:55.139Z,58.19
2023-10-03T15:40:00.778Z,58.16
2023-10-03T15:43:07.919Z,58.06
2023-10-03T15:45:55.103Z,58.02
2023-10-03T15:48:44.462Z,58.13
2023-10-03T15:51:32.046Z,58.17
2023-10-03T15:54:38.728Z,58.34
2023-10-03T15:57:46.211Z,58.50
2023-10-03T16:00:32.254Z,58.30
2023-10-03T16:03:37.780Z,58.30
2023-10-03T16:06:26.842Z,57.92
2023-10-03T16:09:16.356Z,57.98
2023-10-03T16:12:03.057Z,58.09
2023-10-03T16:14:48.515Z,58.23
2023-10-03T16:17:35.181Z,58.17
2023-10-03T16:20:41.378Z,57.92
2023-10-03T16:23:27.895Z,58.06
2023-10-03T16:26:34.436Z,58.36
2023-10-03T16:29:42.016Z,58.51
2023-10-03T16:32:48.190Z,59.14
2023-10-03T16:35:54.417Z,58.71
2023-10-03T16:39:00.330Z,58.75
2023-10-03T16:42:07.106Z,59.17
2023-10-03T16:45:13.775Z,59.22
2023-10-03T16:48:22.803Z,59.24
2023-10-03T16:51:10.037Z,59.59
2023-10-03T16:54:15.972Z,59.45
2023-10-03T16:57:22.138Z,59.11
2023-10-03T17:00:28.518Z,59.15
2023-10-03T17:03:34.989Z,59.06
2023-10-03T17:06:41.415Z,59.49
2023-10-03T17:09:47.546Z,59.36
2023-10-03T17:12:53.993Z,59.33
2023-10-03T17:15:56.252Z,59.55
2023-10-03T17:19:03.380Z,59.64
2023-10-03T17:22:09.838Z,59.90
2023-10-03T17:25:16.177Z,59.96
2023-10-03T17:28:22.809Z,60.05
2023-10-03T17:31:28.685Z,60.53
2023-10-03T17:34:34.471Z,60.90
2023-10-03T17:37:40.412Z,61.40
2023-10-03T17:40:48.818Z,61.80
2023-10-03T17:43:56.454Z,62.10
2023-10-03T17:47:02.261Z,62.18
2023-10-03T17:50:09.034Z,62.49
2023-10-03T17:53:14.312Z,62.24
2023-10-03T17:56:22.010Z,62.39
2023-10-03T17:59:27.342Z,62.32
2023-10-03T18:02:34.068Z,62.17
2023-10-03T18:05:41.988Z,62.08
2023-10-03T18:08:28.506Z,62.29
2023-10-03T18:11:15.365Z,62.23
2023-10-03T18:14:01.726Z,62.02
2023-10-03T18:16:47.484Z,62.50
2023-10-03T18:19:53.460Z,62.80
2023-10-03T18:23:01.058Z,63.50
2023-10-03T18:26:08.349Z,63.88
2023-10-03T18:29:13.748Z,64.65
2023-10-03T18:32:21.767Z,65.05
2023-10-03T18:35:31.321Z,65.61
2023-10-03T18:38:37.048Z,66.08
2023-10-03T18:41:44.095Z,66.41
2023-10-03T18:44:50.225Z,66.89
2023-10-03T18:47:56.552Z,67.00
2023-10-03T18:51:02.488Z,67.29
2023-10-03T18:54:09.480Z,67.90
2023-10-03T18:57:16.321Z,68.32
2023-10-03T19:00:24.023Z,68.74
2023-10-03T19:03:30.580Z,69.01
2023-10-03T19:06:36.299Z,69.06
2023-10-03T19:09:26.549Z,69.11
2023-10-03T19:12:33.205Z,69.36
2023-10-03T19:15:39.168Z,69.28
2023-10-03T19:18:44.738Z,69.40
2023-10-03T19:21:50.412Z,69.95
2023-10-03T19:24:56.564Z,70.15
2023-10-03T19:28:02.539Z,70.19
2023-10-03T19:31:08.466Z,70.22
2023-10-03T19:34:14.248Z,70.25
2023-10-03T19:37:19.884Z,70.62
2023-10-03T19:40:26.063Z,70.63
2023-10-03T19:43:32.239Z,70.97
2023-10-03T19:46:40.184Z,71.24
2023-10-03T19:49:45.955Z,71.37
2023-10-03T19:52:52.795Z,71.94
2023-10-03T19:55:59.417Z,71.72
2023-10-03T19:59:05.249Z,71.81
2023-10-03T20:02:11.132Z,71.99
2023-10-03T20:05:16.913Z,71.83
2023-10-03T20:08:23.691Z,71.92
2023-10-03T20:11:30.450Z,72.25
2023-10-03T20:14:36.180Z,72.37
2023-10-03T20:17:42.194Z,72.14
2023-10-03T20:20:48.061Z,72.86
2023-10-03T20:23:54.795Z,72.66
2023-10-03T20:27:00.418Z,73.02
2023-10-03T20:30:07.627Z,73.15
2023-10-03T20:33:16.516Z,73.09
2023-10-03T20:36:23.587Z,73.05
2023-10-03T20:39:32.084Z,72.88
2023-10-03T20:42:37.739Z,72.82
2023-10-03T20:45:43.869Z,72.49
2023-10-03T20:48:50.545Z,72.66
2023-10-03T20:51:57.196Z,72.60
2023-10-03T20:55:02.706Z,72.31
2023-10-03T20:58:07.974Z,72.27
2023-10-03T21:01:14.373Z,72.28
2023-10-03T21:04:23.034Z,72.24
2023-10-03T21:07:29.508Z,72.19
2023-10-03T21:10:35.694Z,72.73
2023-10-03T21:13:42.318Z,72.73
2023-10-03T21:16:49.276Z,72.82
2023-10-03T21:19:58.596Z,72.97
2023-10-03T21:23:05.280Z,73.03
2023-10-03T21:26:14.168Z,73.16
2023-10-03T21:29:00.672Z,73.36
2023-10-03T21:31:50.351Z,73.51
2023-10-03T21:34:39.697Z,73.58
2023-10-03T21:37:26.612Z,73.65
2023-10-03T21:40:34.457Z,73.32
2023-10-03T21:43:39.972Z,73.05
2023-10-03T21:46:45.933Z,73.38
2023-10-03T21:49:51.865Z,73.16
2023-10-03T21:53:00.379Z,73.29
2023-10-03T21:56:07.042Z,73.59
2023-10-03T21:59:13.641Z,73.46
2023-10-03T22:02:20.356Z,73.63
2023-10-03T22:05:26.523Z,73.52
2023-10-03T22:08:32.205Z,73.49
2023-10-03T22:11:41.171Z,73.27
2023-10-03T22:14:46.901Z,72.83
2023-10-03T22:17:55.667Z,72.65
2023-10-03T22:21:01.463Z,72.64
2023-10-03T22:24:10.312Z,72.21
2023-10-03T22:27:16.676Z,72.25
2023-10-03T22:30:25.573Z,72.12
2023-10-03T22:33:32.460Z,71.87
2023-10-03T22:36:38.188Z,71.54
2023-10-03T22:39:43.967Z,71.34
2023-10-03T22:42:49.706Z,71.36
2023-10-03T22:45:55.682Z,71.27
2023-10-03T22:49:03.903Z,71.29
2023-10-03T22:52:10.988Z,71.18
2023-10-03T22:55:16.537Z,71.00
2023-10-03T22:58:25.430Z,70.87
2023-10-03T23:01:32.946Z,70.77
2023-10-03T23:04:38.545Z,70.79
2023-10-03T23:07:43.980Z,71.06
2023-10-03T23:10:52.643Z,70.76
2023-10-03T23:14:00.171Z,70.97
2023-10-03T23:17:09.065Z,71.11
2023-10-03T23:20:17.714Z,70.92
2023-10-03T23:23:24.224Z,71.12
2023-10-03T23:26:32.924Z,71.11
2023-10-03T23:29:39.162Z,70.90
2023-10-03T23:32:45.190Z,70.99
2023-10-03T23:35:50.667Z,70.90
2023-10-03T23:38:58.418Z,70.61
2023-10-03T23:42:04.017Z,70.51
2023-10-03T23:45:10.782Z,70.68
2023-10-03T23:48:19.704Z,70.55
2023-10-03T23:51:28.834Z,70.26
2023-10-03T23:54:36.522Z,70.31
2023-10-03T23:57:41.997Z,70.26
